createdAt,value
2018-12-20T00:00:45.027Z,1.53
2018-12-20T00:03:15.414Z,1.52
2018-12-20T00:05:44.073Z,1.51
2018-12-20T00:08:12.735Z,1.51
2018-12-20T00:10:41.215Z,1.52
2018-12-20T00:13:09.747Z,1.49
2018-12-20T00:15:38.367Z,1.52
2018-12-20T00:18:07.040Z,1.52
2018-12-20T00:20:35.703Z,1.53
2018-12-20T00:23:04.338Z,1.55
2018-12-20T00:25:32.810Z,1.54
2018-12-20T00:28:01.310Z,1.53
2018-12-20T00:30:29.838Z,1.52
2018-12-20T00:32:58.405Z,1.50
2018-12-20T00:35:27.034Z,1.53
2018-12-20T00:37:55.469Z,1.52
2018-12-20T00:40:24.037Z,1.54
2018-12-20T00:42:52.588Z,1.50
2018-12-20T00:45:21.089Z,1.47
2018-12-20T00:47:49.431Z,1.45
2018-12-20T00:50:18.484Z,1.45
2018-12-20T00:52:47.110Z,1.47
2018-12-20T00:55:15.895Z,1.46
2018-12-20T00:57:44.431Z,1.44
2018-12-20T01:00:13.015Z,1.46
2018-12-20T01:02:42.689Z,1.46
2018-12-20T01:05:11.208Z,1.50
2018-12-20T01:07:39.750Z,1.48
2018-12-20T01:10:08.204Z,1.50
2018-12-20T01:12:36.652Z,1.49
2018-12-20T01:15:05.740Z,1.47
2018-12-20T01:17:38.117Z,1.46
2018-12-20T01:20:08.798Z,1.49
2018-12-20T01:22:37.381Z,1.48
2018-12-20T01:25:05.942Z,1.51
2018-12-20T01:27:34.496Z,1.50
2018-12-20T01:30:03.056Z,1.47
2018-12-20T01:32:31.934Z,1.47
2018-12-20T01:35:00.416Z,1.45
2018-12-20T01:37:29.013Z,1.47
2018-12-20T01:39:57.386Z,1.49
2018-12-20T01:42:26.186Z,1.52
2018-12-20T01:44:55.616Z,1.51
2018-12-20T01:47:23.994Z,1.47
2018-12-20T01:49:52.559Z,1.47
2018-12-20T01:52:21.069Z,1.47
2018-12-20T01:54:49.740Z,1.47
2018-12-20T01:57:18.777Z,1.45
2018-12-20T01:59:47.320Z,1.43
2018-12-20T02:02:15.948Z,1.46
2018-12-20T02:04:44.651Z,1.45
2018-12-20T02:07:13.291Z,1.43
2018-12-20T02:09:43.955Z,1.44
2018-12-20T02:12:14.247Z,1.44
2018-12-20T02:14:42.583Z,1.42
2018-12-20T02:17:10.938Z,1.42
2018-12-20T02:19:39.315Z,1.41
2018-12-20T02:22:07.874Z,1.41
2018-12-20T02:24:36.410Z,1.40
2018-12-20T02:27:04.835Z,1.36
2018-12-20T02:29:33.294Z,1.34
2018-12-20T02:32:01.854Z,1.33
2018-12-20T02:34:30.306Z,1.30
2018-12-20T02:36:58.710Z,1.27
2018-12-20T02:39:27.027Z,1.30
2018-12-20T02:41:55.390Z,1.25
2018-12-20T02:44:23.804Z,1.27
2018-12-20T02:46:52.705Z,1.24
2018-12-20T02:49:21.238Z,1.21
2018-12-20T02:51:49.794Z,1.22
2018-12-20T02:54:18.264Z,1.22
2018-12-20T02:56:46.758Z,1.21
2018-12-20T02:59:15.362Z,1.18
2018-12-20T03:01:43.784Z,1.18
2018-12-20T03:04:12.406Z,1.18
2018-12-20T03:06:40.847Z,1.18
2018-12-20T03:09:10.056Z,1.21
2018-12-20T03:11:38.585Z,1.21
2018-12-20T03:14:07.129Z,1.19
2018-12-20T03:16:35.761Z,1.18
2018-12-20T03:19:04.220Z,1.16
2018-12-20T03:21:32.861Z,1.15
2018-12-20T03:24:01.689Z,1.15
2018-12-20T03:26:30.094Z,1.16
2018-12-20T03:28:58.572Z,1.14
2018-12-20T03:31:27.795Z,1.12
2018-12-20T03:33:56.422Z,1.11
2018-12-20T03:36:24.792Z,1.10
2018-12-20T03:38:53.984Z,1.10
2018-12-20T03:41:22.477Z,1.08
2018-12-20T03:43:50.882Z,1.07
2018-12-20T03:46:19.308Z,1.07
2018-12-20T03:48:47.861Z,1.06
2018-12-20T03:51:16.432Z,1.04
2018-12-20T03:53:44.869Z,1.03
2018-12-20T03:56:13.341Z,1.03
2018-12-20T03:58:42.136Z,1.02
2018-12-20T04:01:10.521Z,1.02
2018-12-20T04:03:38.950Z,1.01
2018-12-20T04:06:07.443Z,1.03
2018-12-20T04:08:35.869Z,0.99
2018-12-20T04:11:04.304Z,0.99
2018-12-20T04:13:32.634Z,0.98
2018-12-20T04:16:01.235Z,0.95
2018-12-20T04:18:30.110Z,0.95
2018-12-20T04:20:58.689Z,0.95
2018-12-20T04:23:27.139Z,0.92
2018-12-20T04:25:55.588Z,0.93
2018-12-20T04:28:24.216Z,0.90
2018-12-20T04:30:53.122Z,0.91
2018-12-20T04:33:21.917Z,0.90
2018-12-20T04:35:50.277Z,0.88
2018-12-20T04:38:18.838Z,0.83
2018-12-20T04:40:47.450Z,0.83
2018-12-20T04:43:16.083Z,0.82
2018-12-20T04:45:46.778Z,0.81
2018-12-20T04:48:15.890Z,0.78
2018-12-20T04:50:44.322Z,0.77
2018-12-20T04:53:12.741Z,0.78
2018-12-20T04:55:41.105Z,0.76
2018-12-20T04:58:09.677Z,0.75
2018-12-20T05:00:40.395Z,0.74
2018-12-20T05:03:08.632Z,0.73
2018-12-20T05:05:37.192Z,0.73
2018-12-20T05:08:05.552Z,0.72
2018-12-20T05:10:33.940Z,0.74
2018-12-20T05:13:02.374Z,0.72
2018-12-20T05:15:30.805Z,0.71
2018-12-20T05:17:59.323Z,0.71
2018-12-20T05:20:27.929Z,0.71
2018-12-20T05:22:56.460Z,0.70
2018-12-20T05:25:24.802Z,0.70
2018-12-20T05:27:53.305Z,0.70
2018-12-20T05:30:21.735Z,0.66
2018-12-20T05:32:50.333Z,0.65
2018-12-20T05:35:19.089Z,0.65
2018-12-20T05:37:47.634Z,0.62
2018-12-20T05:40:16.171Z,0.62
2018-12-20T05:42:44.646Z,0.60
2018-12-20T05:45:13.073Z,0.58
2018-12-20T05:47:41.540Z,0.63
2018-12-20T05:50:10.247Z,0.65
2018-12-20T05:52:38.659Z,0.70
2018-12-20T05:55:07.041Z,0.70
2018-12-20T05:57:35.409Z,0.88
2018-12-20T06:00:05.983Z,0.74
2018-12-20T06:02:34.740Z,0.73
2018-12-20T06:05:03.726Z,0.76
2018-12-20T06:07:34.151Z,0.79
2018-12-20T06:10:02.483Z,0.73
2018-12-20T06:12:30.889Z,0.69
2018-12-20T06:14:59.334Z,0.66
2018-12-20T06:17:28.037Z,0.67
2018-12-20T06:19:56.615Z,0.66
2018-12-20T06:22:25.229Z,0.66
2018-12-20T06:24:53.728Z,0.68
2018-12-20T06:27:22.161Z,0.67
2018-12-20T06:29:50.502Z,0.64
2018-12-20T06:32:18.883Z,0.65
2018-12-20T06:34:47.349Z,0.63
2018-12-20T06:37:15.728Z,0.62
2018-12-20T06:39:44.093Z,0.61
2018-12-20T06:42:12.501Z,0.62
2018-12-20T06:44:40.863Z,0.62
2018-12-20T06:47:09.871Z,0.67
2018-12-20T06:49:38.220Z,0.68
2018-12-20T06:52:06.637Z,0.71
2018-12-20T06:54:35.008Z,0.72
2018-12-20T06:57:03.386Z,0.70
2018-12-20T06:59:31.740Z,0.73
2018-12-20T07:02:00.146Z,0.74
2018-12-20T07:04:28.508Z,0.74
2018-12-20T07:06:56.835Z,0.78
2018-12-20T07:09:25.186Z,0.77
2018-12-20T07:11:53.678Z,0.80
2018-12-20T07:14:22.155Z,0.82
2018-12-20T07:16:50.483Z,0.82
2018-12-20T07:19:18.881Z,0.86
2018-12-20T07:21:49.619Z,0.88
2018-12-20T07:24:18.081Z,0.90
2018-12-20T07:26:46.953Z,0.93
2018-12-20T07:29:16.544Z,0.95
2018-12-20T07:31:45.080Z,0.96
2018-12-20T07:34:13.487Z,1.01
2018-12-20T07:36:41.834Z,1.00
2018-12-20T07:39:10.235Z,0.98
2018-12-20T07:41:39.345Z,1.01
2018-12-20T07:44:07.722Z,0.99
2018-12-20T07:46:37.937Z,1.02
2018-12-20T07:49:06.624Z,1.07
2018-12-20T07:51:34.962Z,1.05
2018-12-20T07:54:03.297Z,1.08
2018-12-20T07:56:31.655Z,1.11
2018-12-20T07:58:59.992Z,1.08
2018-12-20T08:01:28.440Z,1.07
2018-12-20T08:03:56.773Z,1.07
2018-12-20T08:06:25.179Z,1.04
2018-12-20T08:08:53.557Z,1.06
2018-12-20T08:11:21.899Z,1.05
2018-12-20T08:13:50.240Z,1.05
2018-12-20T08:16:18.579Z,1.07
2018-12-20T08:18:46.962Z,1.08
2018-12-20T08:21:15.290Z,1.09
2018-12-20T08:23:43.728Z,1.09
2018-12-20T08:26:12.683Z,1.08
2018-12-20T08:28:41.017Z,1.10
2018-12-20T08:31:09.379Z,1.13
2018-12-20T08:33:37.695Z,1.14
2018-12-20T08:36:06.044Z,1.17
2018-12-20T08:38:34.380Z,1.17
2018-12-20T08:41:02.801Z,1.24
2018-12-20T08:43:31.394Z,1.25
2018-12-20T08:45:59.780Z,1.31
2018-12-20T08:48:28.122Z,1.30
2018-12-20T08:50:56.429Z,1.32
2018-12-20T08:53:24.775Z,1.34
2018-12-20T08:55:53.194Z,1.36
2018-12-20T08:58:21.554Z,1.35
2018-12-20T09:00:50.107Z,1.38
2018-12-20T09:03:18.523Z,1.37
2018-12-20T09:05:46.895Z,1.38
2018-12-20T09:08:15.225Z,1.39
2018-12-20T09:10:43.861Z,1.39
2018-12-20T09:13:12.188Z,1.38
2018-12-20T09:15:40.639Z,1.42
2018-12-20T09:18:08.980Z,1.39
2018-12-20T09:20:37.338Z,1.40
2018-12-20T09:23:05.690Z,1.43
2018-12-20T09:25:34.050Z,1.43
2018-12-20T09:28:02.451Z,1.49
2018-12-20T09:30:30.976Z,1.43
2018-12-20T09:32:59.390Z,1.49
2018-12-20T09:35:27.756Z,1.43
2018-12-20T09:37:56.115Z,1.46
2018-12-20T09:40:24.528Z,1.49
2018-12-20T09:42:52.903Z,1.49
2018-12-20T09:45:21.285Z,1.54
2018-12-20T09:47:53.390Z,1.60
2018-12-20T09:50:21.739Z,1.58
2018-12-20T09:52:50.112Z,1.58
2018-12-20T09:55:18.467Z,1.61
2018-12-20T09:57:46.876Z,1.65
2018-12-20T10:00:15.537Z,1.74
2018-12-20T10:02:43.939Z,1.73
2018-12-20T10:05:12.319Z,1.73
2018-12-20T10:07:40.701Z,1.80
2018-12-20T10:10:09.075Z,1.79
2018-12-20T10:12:37.456Z,1.85
2018-12-20T10:15:06.718Z,1.80
2018-12-20T10:17:35.128Z,1.81
2018-12-20T10:20:03.823Z,1.84
2018-12-20T10:22:32.158Z,1.84
2018-12-20T10:25:00.496Z,1.88
2018-12-20T10:27:31.543Z,1.82
2018-12-20T10:29:59.377Z,1.83
2018-12-20T10:32:27.717Z,1.84
2018-12-20T10:34:56.100Z,1.90
2018-12-20T10:37:24.432Z,1.90
2018-12-20T10:39:52.801Z,1.89
2018-12-20T10:42:21.187Z,1.94
2018-12-20T10:44:49.572Z,1.99
2018-12-20T10:47:28.777Z,1.99
2018-12-20T10:49:54.676Z,2.03
2018-12-20T10:52:23.028Z,2.04
2018-12-20T10:54:51.615Z,2.10
2018-12-20T10:57:20.054Z,2.09
2018-12-20T10:59:48.436Z,2.15
2018-12-20T11:02:22.443Z,2.18
2018-12-20T11:04:56.412Z,2.25
2018-12-20T11:07:30.749Z,2.29
2018-12-20T11:10:04.637Z,2.35
2018-12-20T11:12:38.654Z,2.39
2018-12-20T11:15:07.490Z,2.54
2018-12-20T11:17:37.552Z,2.56
2018-12-20T11:20:06.606Z,2.72
2018-12-20T11:22:34.988Z,2.73
2018-12-20T11:25:03.787Z,2.76
2018-12-20T11:27:32.947Z,2.84
2018-12-20T11:30:01.380Z,2.93
2018-12-20T11:32:29.859Z,2.99
2018-12-20T11:34:58.198Z,2.99
2018-12-20T11:37:26.587Z,2.95
2018-12-20T11:39:59.398Z,2.94
2018-12-20T11:42:25.275Z,2.96
2018-12-20T11:44:53.680Z,3.02
2018-12-20T11:47:27.254Z,3.02
2018-12-20T11:49:55.590Z,2.99
2018-12-20T11:52:23.928Z,2.94
2018-12-20T11:54:54.229Z,2.99
2018-12-20T11:57:22.742Z,3.00
2018-12-20T11:59:51.131Z,3.02
2018-12-20T12:02:24.471Z,2.93
2018-12-20T12:04:50.038Z,2.91
2018-12-20T12:07:18.611Z,2.87
2018-12-20T12:09:47.091Z,2.80
2018-12-20T12:12:16.223Z,2.85
2018-12-20T12:14:44.699Z,2.97
2018-12-20T12:17:13.042Z,3.05
2018-12-20T12:19:41.369Z,3.04
2018-12-20T12:22:09.899Z,3.12
2018-12-20T12:24:38.213Z,3.20
2018-12-20T12:27:06.596Z,3.21
2018-12-20T12:29:35.107Z,3.20
2018-12-20T12:32:03.523Z,3.12
2018-12-20T12:34:31.903Z,3.12
2018-12-20T12:37:00.266Z,3.17
2018-12-20T12:39:28.859Z,3.15
2018-12-20T12:41:57.179Z,3.15
2018-12-20T12:44:25.539Z,3.22
2018-12-20T12:46:53.886Z,3.28
2018-12-20T12:49:24.054Z,3.22
2018-12-20T12:51:53.421Z,3.29
2018-12-20T12:54:21.928Z,3.25
2018-12-20T12:56:50.263Z,3.26
2018-12-20T12:59:18.586Z,3.25
2018-12-20T13:01:46.913Z,3.25
2018-12-20T13:04:15.241Z,3.27
2018-12-20T13:06:43.587Z,3.24
2018-12-20T13:09:12.003Z,3.20
2018-12-20T13:11:40.373Z,3.16
2018-12-20T13:14:08.694Z,3.14
2018-12-20T13:16:37.039Z,3.21
2018-12-20T13:19:05.368Z,3.17
2018-12-20T13:21:33.781Z,3.22
2018-12-20T13:24:02.167Z,3.21
2018-12-20T13:26:30.503Z,3.25
2018-12-20T13:28:58.919Z,3.25
2018-12-20T13:31:27.281Z,3.27
2018-12-20T13:33:55.687Z,3.25
2018-12-20T13:36:24.011Z,3.24
2018-12-20T13:38:52.338Z,3.26
2018-12-20T13:41:20.714Z,3.32
2018-12-20T13:43:49.044Z,3.32
2018-12-20T13:46:17.403Z,3.25
2018-12-20T13:48:45.761Z,3.25
2018-12-20T13:51:14.116Z,3.28
2018-12-20T13:53:42.458Z,3.28
2018-12-20T13:56:10.772Z,3.26
2018-12-20T13:58:39.121Z,3.26
2018-12-20T14:01:07.615Z,3.28
2018-12-20T14:03:36.034Z,3.30
2018-12-20T14:06:04.359Z,3.31
2018-12-20T14:08:32.695Z,3.35
2018-12-20T14:11:01.045Z,3.33
2018-12-20T14:13:29.484Z,3.31
2018-12-20T14:15:57.807Z,3.30
2018-12-20T14:18:30.845Z,3.32
2018-12-20T14:20:56.444Z,3.35
2018-12-20T14:23:24.753Z,3.40
2018-12-20T14:25:53.201Z,3.38
2018-12-20T14:28:21.566Z,3.42
2018-12-20T14:30:50.103Z,3.47
2018-12-20T14:33:18.526Z,3.46
2018-12-20T14:35:46.892Z,3.43
2018-12-20T14:38:15.298Z,3.44
2018-12-20T14:40:43.616Z,3.42
2018-12-20T14:43:12.346Z,3.45
2018-12-20T14:45:40.689Z,3.45
2018-12-20T14:48:10.954Z,3.45
2018-12-20T14:50:39.338Z,3.42
2018-12-20T14:53:07.706Z,3.42
2018-12-20T14:55:36.033Z,3.44
2018-12-20T14:58:04.378Z,3.42
2018-12-20T15:00:32.758Z,3.43
2018-12-20T15:03:01.146Z,3.42
2018-12-20T15:05:29.523Z,3.42
2018-12-20T15:07:57.992Z,3.44
2018-12-20T15:10:26.331Z,3.41
2018-12-20T15:12:54.785Z,3.39
2018-12-20T15:15:23.135Z,3.37
2018-12-20T15:17:51.510Z,3.38
2018-12-20T15:20:19.835Z,3.38
2018-12-20T15:22:48.327Z,3.33
2018-12-20T15:25:16.676Z,3.37
2018-12-20T15:27:45.144Z,3.36
2018-12-20T15:30:13.510Z,3.35
2018-12-20T15:32:41.956Z,3.36
2018-12-20T15:35:10.371Z,3.37
2018-12-20T15:37:38.760Z,3.38
2018-12-20T15:40:07.951Z,3.35
2018-12-20T15:42:36.305Z,3.33
2018-12-20T15:45:06.295Z,3.33
2018-12-20T15:47:34.683Z,3.30
2018-12-20T15:50:03.740Z,3.28
2018-12-20T15:52:32.099Z,3.29
2018-12-20T15:55:00.442Z,3.28
2018-12-20T15:57:28.803Z,3.25
2018-12-20T15:59:57.150Z,3.23
2018-12-20T16:02:25.507Z,3.23
2018-12-20T16:04:53.948Z,3.22
2018-12-20T16:07:22.286Z,3.25
2018-12-20T16:09:50.639Z,3.25
2018-12-20T16:12:19.084Z,3.25
2018-12-20T16:14:47.440Z,3.33
2018-12-20T16:17:15.792Z,3.32
2018-12-20T16:19:44.132Z,3.31
2018-12-20T16:22:12.487Z,3.31
2018-12-20T16:24:40.862Z,3.38
2018-12-20T16:27:09.320Z,3.44
2018-12-20T16:29:37.617Z,3.42
2018-12-20T16:32:06.142Z,3.45
2018-12-20T16:34:34.462Z,3.46
2018-12-20T16:37:02.827Z,3.43
2018-12-20T16:39:31.215Z,3.43
2018-12-20T16:41:59.543Z,3.39
2018-12-20T16:44:27.979Z,3.36
2018-12-20T16:46:56.359Z,3.38
2018-12-20T16:49:24.705Z,3.33
2018-12-20T16:51:53.104Z,3.32
2018-12-20T16:54:21.448Z,3.32
2018-12-20T16:56:49.876Z,3.33
2018-12-20T16:59:18.259Z,3.33
2018-12-20T17:01:46.793Z,3.32
2018-12-20T17:04:15.135Z,3.33
2018-12-20T17:06:43.690Z,3.33
2018-12-20T17:09:12.023Z,3.31
2018-12-20T17:11:40.447Z,3.31
2018-12-20T17:14:08.813Z,3.28
2018-12-20T17:16:37.208Z,3.30
2018-12-20T17:19:05.635Z,3.29
2018-12-20T17:21:34.074Z,3.30
2018-12-20T17:24:02.468Z,3.30
2018-12-20T17:26:31.060Z,3.31
2018-12-20T17:28:59.401Z,3.30
2018-12-20T17:31:28.444Z,3.32
2018-12-20T17:33:57.177Z,3.32
2018-12-20T17:36:25.583Z,3.34
2018-12-20T17:38:53.920Z,3.36
2018-12-20T17:41:22.354Z,3.38
2018-12-20T17:43:50.782Z,3.40
2018-12-20T17:46:19.200Z,3.41
2018-12-20T17:48:47.564Z,3.41
2018-12-20T17:51:15.960Z,3.42
2018-12-20T17:53:44.452Z,3.39
2018-12-20T17:56:12.831Z,3.42
2018-12-20T17:58:41.213Z,3.43
2018-12-20T18:01:09.587Z,3.42
2018-12-20T18:03:38.047Z,3.44
2018-12-20T18:06:06.475Z,3.47
2018-12-20T18:08:34.921Z,3.44
2018-12-20T18:11:03.308Z,3.44
2018-12-20T18:13:31.635Z,3.45
2018-12-20T18:15:59.972Z,3.47
2018-12-20T18:18:28.607Z,3.48
2018-12-20T18:20:56.925Z,3.49
2018-12-20T18:23:25.895Z,3.52
2018-12-20T18:25:55.271Z,3.53
2018-12-20T18:28:24.797Z,3.53
2018-12-20T18:30:54.152Z,3.53
2018-12-20T18:33:23.829Z,3.54
2018-12-20T18:35:53.350Z,3.55
2018-12-20T18:38:23.032Z,3.57
2018-12-20T18:40:52.555Z,3.61
2018-12-20T18:43:22.266Z,3.63
2018-12-20T18:45:51.551Z,3.64
2018-12-20T18:48:19.883Z,3.63
2018-12-20T18:50:48.234Z,3.62
2018-12-20T18:53:16.603Z,3.62
2018-12-20T18:55:45.007Z,3.66
2018-12-20T18:58:13.367Z,3.64
2018-12-20T19:00:41.840Z,3.64
2018-12-20T19:03:10.240Z,3.64
2018-12-20T19:05:38.565Z,3.67
2018-12-20T19:08:06.980Z,3.71
2018-12-20T19:10:35.735Z,3.69
2018-12-20T19:13:04.074Z,3.67
2018-12-20T19:15:32.447Z,3.67
2018-12-20T19:18:00.852Z,3.68
2018-12-20T19:20:29.201Z,3.69
2018-12-20T19:22:57.565Z,3.68
2018-12-20T19:25:25.865Z,3.67
2018-12-20T19:27:54.663Z,3.70
2018-12-20T19:30:24.196Z,3.69
2018-12-20T19:32:52.768Z,3.67
2018-12-20T19:35:21.199Z,3.64
2018-12-20T19:37:50.581Z,3.62
2018-12-20T19:40:18.955Z,3.65
2018-12-20T19:42:47.863Z,3.66
2018-12-20T19:45:17.527Z,3.68
2018-12-20T19:47:47.012Z,3.69
2018-12-20T19:50:16.314Z,3.73
2018-12-20T19:52:45.986Z,3.76
2018-12-20T19:55:15.455Z,3.81
2018-12-20T19:57:45.185Z,3.89
2018-12-20T20:00:15.176Z,3.96
2018-12-20T20:02:45.060Z,3.97
2018-12-20T20:05:14.809Z,3.98
2018-12-20T20:07:44.805Z,4.01
2018-12-20T20:10:14.171Z,4.00
2018-12-20T20:12:43.650Z,4.05
2018-12-20T20:15:16.661Z,4.05
2018-12-20T20:17:44.836Z,3.98
2018-12-20T20:20:14.618Z,4.06
2018-12-20T20:22:44.106Z,4.10
2018-12-20T20:25:13.571Z,4.07
2018-12-20T20:27:42.885Z,4.08
2018-12-20T20:30:13.498Z,4.12
2018-12-20T20:32:42.052Z,4.22
2018-12-20T20:35:10.408Z,4.31
2018-12-20T20:37:39.008Z,4.29
2018-12-20T20:40:08.276Z,4.26
2018-12-20T20:42:36.659Z,4.27
2018-12-20T20:45:06.191Z,4.25
2018-12-20T20:47:34.565Z,4.29
2018-12-20T20:50:03.827Z,4.32
2018-12-20T20:52:32.185Z,4.32
2018-12-20T20:55:00.689Z,4.37
2018-12-20T20:57:29.015Z,4.42
2018-12-20T20:59:57.560Z,4.33
2018-12-20T21:02:26.113Z,4.32
2018-12-20T21:04:54.525Z,4.36
2018-12-20T21:07:22.911Z,4.38
2018-12-20T21:09:51.274Z,4.44
2018-12-20T21:12:22.948Z,4.45
2018-12-20T21:14:52.607Z,4.54
2018-12-20T21:17:20.509Z,4.67
2018-12-20T21:19:50.387Z,4.73
2018-12-20T21:22:18.847Z,4.82
2018-12-20T21:24:47.173Z,4.83
2018-12-20T21:27:17.410Z,5.00
2018-12-20T21:29:45.819Z,5.01
2018-12-20T21:32:14.136Z,5.02
2018-12-20T21:34:42.475Z,5.03
2018-12-20T21:37:10.788Z,5.01
2018-12-20T21:39:39.119Z,5.06
2018-12-20T21:42:07.495Z,5.17
2018-12-20T21:44:35.868Z,5.21
2018-12-20T21:47:04.358Z,5.19
2018-12-20T21:49:32.684Z,5.22
2018-12-20T21:52:01.679Z,5.22
2018-12-20T21:54:30.216Z,5.18
2018-12-20T21:56:58.601Z,5.20
2018-12-20T21:59:26.958Z,5.28
2018-12-20T22:01:55.318Z,5.30
2018-12-20T22:04:23.827Z,5.32
2018-12-20T22:06:52.173Z,5.31
2018-12-20T22:09:20.490Z,5.27
2018-12-20T22:11:49.574Z,5.26
2018-12-20T22:14:17.905Z,5.27
2018-12-20T22:16:46.347Z,5.23
2018-12-20T22:19:14.877Z,5.26
2018-12-20T22:21:43.261Z,5.27
2018-12-20T22:24:11.605Z,5.28
2018-12-20T22:26:39.931Z,5.26
2018-12-20T22:29:08.351Z,5.21
2018-12-20T22:31:36.692Z,5.24
2018-12-20T22:34:05.093Z,5.22
2018-12-20T22:36:33.539Z,5.14
2018-12-20T22:39:01.984Z,5.10
2018-12-20T22:41:30.445Z,5.17
2018-12-20T22:43:58.941Z,5.24
2018-12-20T22:46:27.324Z,5.24
2018-12-20T22:48:55.731Z,5.33
2018-12-20T22:51:24.173Z,5.34
2018-12-20T22:53:52.540Z,5.35
2018-12-20T22:56:20.886Z,5.35
2018-12-20T22:58:49.223Z,5.42
2018-12-20T23:01:17.538Z,5.55
2018-12-20T23:03:46.017Z,5.65
2018-12-20T23:06:14.511Z,5.74
2018-12-20T23:08:43.056Z,5.76
2018-12-20T23:11:11.814Z,5.86
2018-12-20T23:13:40.116Z,5.89
2018-12-20T23:16:08.454Z,5.94
2018-12-20T23:18:36.787Z,5.98
2018-12-20T23:21:05.454Z,5.94
2018-12-20T23:23:33.939Z,5.95
2018-12-20T23:26:02.287Z,6.01
2018-12-20T23:28:30.638Z,5.96
2018-12-20T23:30:58.991Z,5.96
2018-12-20T23:33:27.336Z,5.98
2018-12-20T23:35:55.654Z,5.96
2018-12-20T23:38:23.999Z,5.92
2018-12-20T23:40:52.326Z,5.91
2018-12-20T23:43:20.651Z,5.89
2018-12-20T23:45:48.979Z,5.89
2018-12-20T23:48:17.303Z,5.93
2018-12-20T23:50:46.236Z,5.89
2018-12-20T23:53:14.589Z,5.89
2018-12-20T23:55:42.904Z,5.91
2018-12-20T23:58:11.235Z,5.90
